Time;durP1;ratioP1;P1;durP2;ratioP2;P2;SDS_P1;SDS_P2;PMS_P1;PMS_P2;Temp;Humidity;BMP_temperature;BMP_pressure;BME280_temperature;BME280_humidity;BME280_pressure;Samples;Min_cycle;Max_cycle;Signal;HPM_P1;HPM_P2
2022/07/31 00:00:03;;;;;;;6.93;3.30;;;;;;;;;;4987005;28;20057;-44
2022/07/31 00:02:28;;;;;;;4.35;2.85;;;;;;;;;;4984876;28;20141;-45
2022/07/31 00:04:54;;;;;;;8.32;3.05;;;;;;;;;;4986824;28;20125;-45
2022/07/31 00:07:19;;;;;;;8.00;3.88;;;;;;;;;;4987326;28;20069;-45
2022/07/31 00:09:44;;;;;;;9.30;3.90;;;;;;;;;;4987343;28;20054;-46
2022/07/31 00:12:10;;;;;;;5.93;3.20;;;;;;;;;;4986823;28;20421;-44
2022/07/31 00:14:35;;;;;;;5.25;2.42;;;;;;;;;;4987057;28;20428;-47
2022/07/31 00:17:00;;;;;;;5.85;3.00;;;;;;;;;;4987211;28;20042;-47
2022/07/31 00:19:25;;;;;;;4.55;3.03;;;;;;;;;;4987188;28;20050;-44
2022/07/31 00:21:51;;;;;;;7.90;3.45;;;;;;;;;;4986238;28;20046;-51
2022/07/31 00:24:16;;;;;;;7.35;3.17;;;;;;;;;;4987300;28;20042;-50
2022/07/31 00:26:41;;;;;;;4.25;2.83;;;;;;;;;;4987092;28;20042;-49
2022/07/31 00:29:07;;;;;;;6.18;2.92;;;;;;;;;;4986915;28;20042;-49
2022/07/31 00:31:32;;;;;;;26.33;3.67;;;;;;;;;;4986660;28;20509;-44
2022/07/31 00:33:57;;;;;;;10.52;3.20;;;;;;;;;;4986508;28;20514;-45
2022/07/31 00:36:23;;;;;;;4.30;2.50;;;;;;;;;;4986820;28;20532;-46
2022/07/31 00:38:48;;;;;;;9.68;3.08;;;;;;;;;;4987242;28;20050;-46
2022/07/31 00:41:14;;;;;;;4.43;2.58;;;;;;;;;;4986929;28;20493;-45
2022/07/31 00:43:39;;;;;;;4.50;2.85;;;;;;;;;;4986822;28;20054;-47
2022/07/31 00:46:05;;;;;;;5.68;2.60;;;;;;;;;;4986062;28;20050;-49
2022/07/31 00:48:31;;;;;;;4.78;2.85;;;;;;;;;;4985868;28;20104;-48
2022/07/31 00:50:56;;;;;;;5.40;3.25;;;;;;;;;;4986894;28;20050;-46
2022/07/31 00:53:21;;;;;;;14.60;3.95;;;;;;;;;;4987062;28;20521;-47
2022/07/31 00:55:47;;;;;;;5.20;3.30;;;;;;;;;;4986932;28;20050;-48
2022/07/31 00:58:12;;;;;;;7.07;3.00;;;;;;;;;;4984428;28;20089;-45
2022/07/31 01:00:38;;;;;;;20.80;3.70;;;;;;;;;;4985874;28;20074;-45
2022/07/31 01:03:03;;;;;;;5.22;3.33;;;;;;;;;;4986111;28;20057;-48
2022/07/31 01:05:29;;;;;;;4.18;2.83;;;;;;;;;;4988211;28;20046;-46
2022/07/31 01:07:54;;;;;;;4.97;3.65;;;;;;;;;;4990554;28;20563;-47
2022/07/31 01:10:38;;;;;;;6.32;3.85;;;;;;;;;;4989953;28;20076;-47
2022/07/31 01:13:07;;;;;;;6.47;2.60;;;;;;;;;;4989193;28;20046;-48
2022/07/31 01:15:34;;;;;;;8.48;3.35;;;;;;;;;;4989635;28;20605;-52
2022/07/31 01:17:59;;;;;;;7.05;3.03;;;;;;;;;;4989257;28;20092;-50
2022/07/31 01:20:26;;;;;;;4.55;2.72;;;;;;;;;;4989039;28;20145;-48
2022/07/31 01:22:52;;;;;;;4.05;3.40;;;;;;;;;;4989529;28;20058;-49
2022/07/31 01:25:20;;;;;;;6.07;2.70;;;;;;;;;;4990088;28;20092;-47
2022/07/31 01:27:48;;;;;;;5.18;3.97;;;;;;;;;;4989845;28;20058;-48
2022/07/31 01:30:14;;;;;;;5.88;3.83;;;;;;;;;;4989670;28;20061;-44
2022/07/31 01:32:43;;;;;;;4.80;3.17;;;;;;;;;;4989544;28;20054;-46
2022/07/31 01:35:08;;;;;;;14.00;3.83;;;;;;;;;;4988489;28;20080;-44
2022/07/31 01:37:49;;;;;;;4.05;2.67;;;;;;;;;;4989635;28;20868;-46
2022/07/31 01:40:17;;;;;;;2.80;2.30;;;;;;;;;;4987092;28;20129;-46
2022/07/31 01:42:45;;;;;;;6.72;2.63;;;;;;;;;;4989322;28;20042;-45
2022/07/31 01:45:13;;;;;;;7.97;3.80;;;;;;;;;;4989897;28;20066;-49
2022/07/31 01:47:38;;;;;;;7.18;3.28;;;;;;;;;;4988071;28;20048;-45
2022/07/31 01:50:05;;;;;;;3.78;3.05;;;;;;;;;;4989972;28;20160;-48
2022/07/31 01:52:31;;;;;;;4.90;2.95;;;;;;;;;;4989309;28;20085;-50
2022/07/31 01:54:57;;;;;;;6.15;2.85;;;;;;;;;;4988799;28;20030;-48
2022/07/31 01:57:24;;;;;;;6.70;3.33;;;;;;;;;;4988384;28;20050;-48
2022/07/31 01:59:52;;;;;;;4.80;3.00;;;;;;;;;;4989087;28;20053;-49
2022/07/31 02:02:18;;;;;;;4.20;2.03;;;;;;;;;;4989055;28;20042;-47
2022/07/31 02:04:45;;;;;;;3.13;2.53;;;;;;;;;;4988923;28;20494;-46
2022/07/31 02:07:11;;;;;;;3.97;3.50;;;;;;;;;;4988220;28;20038;-48
2022/07/31 02:09:36;;;;;;;12.55;4.55;;;;;;;;;;4988214;28;20092;-45
2022/07/31 02:12:02;;;;;;;4.60;3.47;;;;;;;;;;4989164;28;20042;-49
2022/07/31 02:14:28;;;;;;;5.43;3.47;;;;;;;;;;4988682;28;20054;-49
2022/07/31 02:16:54;;;;;;;5.93;4.05;;;;;;;;;;4988812;28;20120;-48
2022/07/31 02:19:20;;;;;;;6.93;3.63;;;;;;;;;;4987991;28;20034;-50
2022/07/31 02:21:45;;;;;;;7.57;3.25;;;;;;;;;;4988884;28;20077;-50
2022/07/31 02:24:10;;;;;;;3.28;2.97;;;;;;;;;;4988096;28;20437;-47
2022/07/31 02:26:37;;;;;;;6.68;3.35;;;;;;;;;;4988293;28;20056;-49
2022/07/31 02:29:03;;;;;;;5.55;3.03;;;;;;;;;;4987009;28;20065;-49
2022/07/31 02:31:30;;;;;;;5.82;3.55;;;;;;;;;;4988686;28;20050;-50
2022/07/31 02:33:55;;;;;;;7.18;3.25;;;;;;;;;;4986922;28;20116;-51
2022/07/31 02:36:22;;;;;;;4.85;3.58;;;;;;;;;;4988656;28;20050;-50
2022/07/31 02:38:49;;;;;;;10.10;4.07;;;;;;;;;;4988278;28;20042;-49
2022/07/31 02:41:15;;;;;;;6.85;4.10;;;;;;;;;;4987600;28;20054;-52
2022/07/31 02:43:41;;;;;;;6.68;3.97;;;;;;;;;;4987955;28;20109;-51
2022/07/31 02:46:07;;;;;;;5.22;2.50;;;;;;;;;;4988639;28;20060;-52
2022/07/31 02:48:33;;;;;;;3.83;2.72;;;;;;;;;;4988118;28;20086;-53
2022/07/31 02:50:59;;;;;;;4.53;2.75;;;;;;;;;;4985695;28;20043;-53
2022/07/31 02:53:24;;;;;;;9.23;4.53;;;;;;;;;;4988174;28;20418;-47
2022/07/31 02:55:50;;;;;;;4.32;3.50;;;;;;;;;;4987981;28;20053;-48
2022/07/31 02:58:18;;;;;;;3.38;3.05;;;;;;;;;;4987756;28;20058;-48
2022/07/31 03:00:44;;;;;;;4.78;4.20;;;;;;;;;;4987496;28;20129;-47
2022/07/31 03:03:10;;;;;;;6.68;3.13;;;;;;;;;;4987632;28;20176;-50
2022/07/31 03:05:35;;;;;;;8.15;3.30;;;;;;;;;;4988050;28;20050;-46
2022/07/31 03:08:00;;;;;;;6.60;4.18;;;;;;;;;;4987911;28;20046;-48
2022/07/31 03:10:26;;;;;;;6.93;3.45;;;;;;;;;;4987973;28;20148;-48
2022/07/31 03:12:53;;;;;;;5.57;3.85;;;;;;;;;;4987433;28;20085;-50
2022/07/31 03:15:19;;;;;;;4.03;3.08;;;;;;;;;;4987518;28;20061;-50
2022/07/31 03:17:45;;;;;;;3.65;3.00;;;;;;;;;;4987487;28;20046;-50
2022/07/31 03:20:11;;;;;;;4.93;3.13;;;;;;;;;;4987632;28;20054;-50
2022/07/31 03:22:38;;;;;;;5.82;2.78;;;;;;;;;;4987590;28;20046;-50
2022/07/31 03:25:04;;;;;;;5.30;3.03;;;;;;;;;;4986693;28;20049;-46
2022/07/31 03:27:29;;;;;;;6.28;3.28;;;;;;;;;;4986684;28;20061;-45
2022/07/31 03:29:55;;;;;;;9.60;3.88;;;;;;;;;;4987282;28;20165;-47
2022/07/31 03:32:20;;;;;;;7.28;3.50;;;;;;;;;;4986409;28;20050;-50
2022/07/31 03:34:46;;;;;;;6.95;4.15;;;;;;;;;;4988124;28;20069;-48
2022/07/31 03:37:11;;;;;;;7.88;4.00;;;;;;;;;;4986688;28;20050;-44
2022/07/31 03:39:37;;;;;;;3.53;3.20;;;;;;;;;;4987554;28;20081;-45
2022/07/31 03:42:02;;;;;;;8.48;3.85;;;;;;;;;;4986329;28;20047;-48
2022/07/31 03:44:29;;;;;;;4.70;3.67;;;;;;;;;;4986779;28;20046;-48
2022/07/31 03:46:54;;;;;;;6.43;3.10;;;;;;;;;;4987199;28;20482;-48
2022/07/31 03:49:20;;;;;;;8.73;4.20;;;;;;;;;;4986990;28;20140;-49
2022/07/31 03:51:45;;;;;;;4.43;3.38;;;;;;;;;;4986210;28;20053;-51
2022/07/31 03:54:11;;;;;;;8.43;4.07;;;;;;;;;;4986774;28;20085;-50
2022/07/31 03:56:37;;;;;;;7.90;3.00;;;;;;;;;;4986994;28;20132;-47
2022/07/31 03:59:02;;;;;;;4.18;3.15;;;;;;;;;;4986693;28;20046;-48
2022/07/31 04:01:29;;;;;;;4.78;3.53;;;;;;;;;;4985807;28;20568;-48
2022/07/31 04:03:58;;;;;;;5.15;4.55;;;;;;;;;;4968349;28;20596;-49
2022/07/31 04:06:23;;;;;;;5.03;3.58;;;;;;;;;;4986874;28;20042;-47
2022/07/31 04:08:49;;;;;;;4.53;3.38;;;;;;;;;;4987076;28;20050;-48
2022/07/31 04:11:15;;;;;;;8.85;2.15;;;;;;;;;;4986903;28;20038;-47
2022/07/31 04:13:40;;;;;;;5.43;3.97;;;;;;;;;;4986698;28;20133;-50
2022/07/31 04:16:05;;;;;;;4.38;3.45;;;;;;;;;;4987118;28;20046;-49
2022/07/31 04:18:30;;;;;;;8.27;3.53;;;;;;;;;;4986957;28;20053;-48
2022/07/31 04:20:56;;;;;;;8.45;4.38;;;;;;;;;;4986528;28;20080;-47
2022/07/31 04:23:21;;;;;;;16.95;4.72;;;;;;;;;;4986816;28;20050;-47
2022/07/31 04:25:46;;;;;;;5.60;4.47;;;;;;;;;;4986062;28;20143;-45
2022/07/31 04:28:12;;;;;;;5.32;4.15;;;;;;;;;;4986633;28;20497;-47
2022/07/31 04:30:38;;;;;;;4.82;3.75;;;;;;;;;;4986408;28;20054;-47
2022/07/31 04:33:03;;;;;;;12.18;5.40;;;;;;;;;;4986514;28;20046;-47
2022/07/31 04:35:28;;;;;;;8.70;4.07;;;;;;;;;;4986364;28;20050;-46
2022/07/31 04:37:54;;;;;;;8.63;3.95;;;;;;;;;;4986507;28;20667;-48
2022/07/31 04:40:20;;;;;;;6.95;4.57;;;;;;;;;;4986374;28;20512;-44
2022/07/31 04:42:45;;;;;;;4.10;3.60;;;;;;;;;;4985944;28;20073;-45
2022/07/31 04:45:11;;;;;;;10.52;5.18;;;;;;;;;;4985967;28;20509;-43
2022/07/31 04:47:37;;;;;;;8.00;3.47;;;;;;;;;;4986788;28;20133;-45
2022/07/31 04:50:02;;;;;;;7.35;2.45;;;;;;;;;;4986726;28;20042;-47
2022/07/31 04:52:27;;;;;;;9.23;4.28;;;;;;;;;;4986303;28;20048;-47
2022/07/31 04:54:53;;;;;;;6.45;4.57;;;;;;;;;;4985619;28;20129;-48
2022/07/31 04:57:18;;;;;;;4.90;4.20;;;;;;;;;;4985888;28;20067;-47
2022/07/31 04:59:43;;;;;;;16.70;4.28;;;;;;;;;;4986676;28;20053;-47
2022/07/31 05:02:09;;;;;;;3.92;3.55;;;;;;;;;;4986556;28;20490;-51
2022/07/31 05:04:34;;;;;;;6.75;4.30;;;;;;;;;;4985989;28;20078;-48
2022/07/31 05:06:59;;;;;;;7.88;4.20;;;;;;;;;;4985596;28;20533;-48
2022/07/31 05:09:28;;;;;;;4.65;3.28;;;;;;;;;;4986109;28;20180;-48
2022/07/31 05:11:54;;;;;;;5.13;4.47;;;;;;;;;;4985938;28;20355;-50
2022/07/31 05:14:20;;;;;;;5.55;5.00;;;;;;;;;;4985287;28;20509;-47
2022/07/31 05:16:46;;;;;;;12.23;4.82;;;;;;;;;;4985742;28;20141;-49
2022/07/31 05:19:11;;;;;;;9.73;4.25;;;;;;;;;;4986101;28;20137;-49
2022/07/31 05:21:37;;;;;;;6.97;3.95;;;;;;;;;;4985579;28;20054;-47
2022/07/31 05:24:02;;;;;;;10.80;4.78;;;;;;;;;;4985765;28;20038;-47
2022/07/31 05:26:28;;;;;;;6.43;3.88;;;;;;;;;;4986158;28;20046;-51
2022/07/31 05:28:55;;;;;;;6.25;4.00;;;;;;;;;;4984991;28;20121;-46
2022/07/31 05:31:20;;;;;;;4.80;4.00;;;;;;;;;;4985149;28;20050;-48
2022/07/31 05:33:46;;;;;;;7.32;4.25;;;;;;;;;;4985007;28;20528;-50
2022/07/31 05:36:12;;;;;;;7.57;4.82;;;;;;;;;;4985327;28;20164;-49
2022/07/31 05:38:37;;;;;;;5.72;4.40;;;;;;;;;;4984176;28;20057;-46
2022/07/31 05:41:02;;;;;;;6.43;4.72;;;;;;;;;;4984433;28;20047;-48
2022/07/31 05:43:28;;;;;;;5.20;3.97;;;;;;;;;;4985153;28;20078;-48
2022/07/31 05:45:53;;;;;;;13.65;5.28;;;;;;;;;;4983643;28;20050;-48
2022/07/31 05:48:19;;;;;;;7.00;3.50;;;;;;;;;;4986897;28;20038;-47
2022/07/31 05:50:45;;;;;;;14.27;4.88;;;;;;;;;;4986959;28;20101;-49
2022/07/31 05:53:16;;;;;;;8.60;4.85;;;;;;;;;;4988327;28;20070;-48
2022/07/31 05:55:42;;;;;;;18.23;5.85;;;;;;;;;;4988329;28;20057;-45
2022/07/31 05:58:07;;;;;;;4.43;3.45;;;;;;;;;;4988557;28;20797;-46
2022/07/31 06:00:33;;;;;;;3.47;3.08;;;;;;;;;;4988088;28;20050;-49
2022/07/31 06:02:59;;;;;;;5.05;3.00;;;;;;;;;;4987451;28;20409;-46
2022/07/31 06:05:26;;;;;;;5.18;3.35;;;;;;;;;;4987937;28;20141;-45
2022/07/31 06:07:51;;;;;;;13.63;5.20;;;;;;;;;;4988238;28;20061;-51
2022/07/31 06:10:16;;;;;;;9.23;4.82;;;;;;;;;;4988668;28;20050;-46
2022/07/31 06:12:42;;;;;;;8.02;4.50;;;;;;;;;;4988094;28;20046;-50
2022/07/31 06:15:07;;;;;;;4.60;3.92;;;;;;;;;;4988015;28;20798;-49
2022/07/31 06:17:33;;;;;;;9.57;4.95;;;;;;;;;;4988487;28;20045;-48
2022/07/31 06:19:58;;;;;;;3.50;3.20;;;;;;;;;;4985835;28;20152;-45
2022/07/31 06:22:23;;;;;;;3.95;3.55;;;;;;;;;;4988253;28;20162;-47
2022/07/31 06:24:49;;;;;;;3.28;2.97;;;;;;;;;;4988846;28;20497;-48
2022/07/31 06:27:14;;;;;;;4.13;3.60;;;;;;;;;;4988733;28;20405;-46
2022/07/31 06:29:39;;;;;;;5.07;2.60;;;;;;;;;;4988557;28;20052;-48
2022/07/31 06:32:05;;;;;;;5.63;3.20;;;;;;;;;;4988116;28;20046;-52
2022/07/31 06:34:30;;;;;;;6.10;3.80;;;;;;;;;;4988094;28;20477;-45
2022/07/31 06:36:56;;;;;;;5.80;3.58;;;;;;;;;;4987576;28;20076;-49
2022/07/31 06:39:21;;;;;;;8.48;4.40;;;;;;;;;;4987589;28;20074;-48
2022/07/31 06:41:46;;;;;;;5.88;3.42;;;;;;;;;;4987257;28;20038;-47
2022/07/31 06:44:15;;;;;;;4.60;3.60;;;;;;;;;;4987819;28;20054;-45
2022/07/31 06:46:41;;;;;;;7.95;3.67;;;;;;;;;;4985738;28;20049;-46
2022/07/31 06:49:06;;;;;;;4.50;3.35;;;;;;;;;;4986523;28;20136;-44
2022/07/31 06:51:31;;;;;;;5.10;3.80;;;;;;;;;;4987080;28;20053;-44
2022/07/31 06:53:57;;;;;;;3.38;2.85;;;;;;;;;;4986301;28;20046;-48
2022/07/31 06:56:23;;;;;;;3.55;2.75;;;;;;;;;;4987428;28;20049;-48
2022/07/31 06:58:48;;;;;;;4.55;2.67;;;;;;;;;;4987363;28;20050;-47
2022/07/31 07:01:13;;;;;;;7.22;3.22;;;;;;;;;;4986443;28;20493;-50
2022/07/31 07:03:42;;;;;;;16.02;3.60;;;;;;;;;;4986792;28;20046;-52
2022/07/31 07:06:07;;;;;;;4.80;2.70;;;;;;;;;;4967989;28;20038;-49
2022/07/31 07:08:32;;;;;;;3.90;2.50;;;;;;;;;;4987385;28;20517;-44
2022/07/31 07:10:57;;;;;;;10.02;2.90;;;;;;;;;;4987107;28;20678;-46
2022/07/31 07:13:25;;;;;;;9.13;4.28;;;;;;;;;;4987772;28;20518;-48
2022/07/31 07:15:50;;;;;;;13.15;4.28;;;;;;;;;;4985566;28;20116;-51
2022/07/31 07:18:15;;;;;;;9.48;4.63;;;;;;;;;;4987142;28;20506;-44
2022/07/31 07:20:41;;;;;;;5.95;3.92;;;;;;;;;;4985589;28;20626;-46
2022/07/31 07:23:06;;;;;;;3.58;3.28;;;;;;;;;;4986928;28;20542;-45
2022/07/31 07:25:32;;;;;;;11.68;3.28;;;;;;;;;;4986789;28;20136;-44
2022/07/31 07:27:57;;;;;;;18.67;7.20;;;;;;;;;;4987237;28;20084;-49
2022/07/31 07:30:23;;;;;;;8.35;6.22;;;;;;;;;;4986459;28;20521;-45
2022/07/31 07:32:49;;;;;;;4.50;4.07;;;;;;;;;;4985803;28;20038;-44
2022/07/31 07:35:14;;;;;;;5.28;4.63;;;;;;;;;;4987093;28;20505;-45
2022/07/31 07:37:40;;;;;;;2.22;1.75;;;;;;;;;;4986727;28;20137;-45
2022/07/31 07:40:06;;;;;;;4.47;2.22;;;;;;;;;;4987184;28;20072;-48
2022/07/31 07:42:31;;;;;;;5.15;2.90;;;;;;;;;;4987004;28;20050;-47
2022/07/31 07:44:57;;;;;;;4.20;2.15;;;;;;;;;;4986483;28;20058;-47
2022/07/31 07:47:23;;;;;;;8.50;3.72;;;;;;;;;;4985472;28;20043;-46
2022/07/31 07:49:48;;;;;;;4.68;2.80;;;;;;;;;;4984695;28;20046;-45
2022/07/31 07:52:13;;;;;;;6.45;3.60;;;;;;;;;;4986854;28;20046;-51
2022/07/31 07:54:41;;;;;;;3.22;2.47;;;;;;;;;;4969469;28;20042;-47
2022/07/31 07:57:06;;;;;;;6.47;3.88;;;;;;;;;;4985958;28;20349;-44
2022/07/31 07:59:32;;;;;;;8.00;3.33;;;;;;;;;;4985825;28;20501;-46
2022/07/31 08:01:57;;;;;;;7.05;3.50;;;;;;;;;;4985666;28;20081;-45
2022/07/31 08:04:22;;;;;;;5.10;2.80;;;;;;;;;;4985511;28;20462;-46
2022/07/31 08:06:48;;;;;;;14.52;3.50;;;;;;;;;;4985639;28;20565;-46
2022/07/31 08:09:13;;;;;;;6.25;4.28;;;;;;;;;;4985394;28;20548;-47
2022/07/31 08:11:38;;;;;;;6.10;4.00;;;;;;;;;;4985607;28;20557;-46
2022/07/31 08:14:04;;;;;;;6.00;4.10;;;;;;;;;;4986631;28;20699;-47
2022/07/31 08:16:31;;;;;;;5.03;3.22;;;;;;;;;;4984949;28;20049;-44
2022/07/31 08:18:56;;;;;;;3.80;2.97;;;;;;;;;;4987142;28;20077;-47
2022/07/31 08:21:21;;;;;;;6.53;4.10;;;;;;;;;;4986615;28;20078;-48
2022/07/31 08:23:47;;;;;;;8.38;4.82;;;;;;;;;;4986816;28;20050;-50
2022/07/31 08:26:12;;;;;;;5.88;4.90;;;;;;;;;;4986918;28;20049;-48
2022/07/31 08:28:37;;;;;;;6.07;4.78;;;;;;;;;;4986910;28;20042;-46
2022/07/31 08:31:03;;;;;;;6.25;4.13;;;;;;;;;;4986542;28;20049;-49
2022/07/31 08:33:28;;;;;;;4.10;3.70;;;;;;;;;;4986698;28;20402;-46
2022/07/31 08:35:53;;;;;;;9.38;4.60;;;;;;;;;;4986253;28;20073;-47
2022/07/31 08:38:19;;;;;;;3.83;2.45;;;;;;;;;;4986566;28;20133;-44
2022/07/31 08:40:45;;;;;;;2.58;2.08;;;;;;;;;;4986188;28;20405;-45
2022/07/31 08:43:11;;;;;;;3.00;2.30;;;;;;;;;;4986666;28;20042;-45
2022/07/31 08:45:37;;;;;;;4.13;2.50;;;;;;;;;;4986470;28;20123;-47
2022/07/31 08:48:04;;;;;;;2.05;1.27;;;;;;;;;;4985787;28;20492;-48
2022/07/31 08:50:31;;;;;;;1.65;1.10;;;;;;;;;;4985803;28;20462;-47
2022/07/31 08:52:57;;;;;;;9.40;2.95;;;;;;;;;;4985051;28;20060;-47
2022/07/31 08:55:23;;;;;;;8.23;4.45;;;;;;;;;;4985838;28;20057;-47
2022/07/31 08:57:49;;;;;;;22.90;4.78;;;;;;;;;;4985363;28;20046;-51
2022/07/31 09:00:18;;;;;;;6.45;4.50;;;;;;;;;;4986417;28;20046;-48
2022/07/31 09:02:44;;;;;;;6.88;4.30;;;;;;;;;;4986385;28;20046;-50
2022/07/31 09:05:09;;;;;;;6.18;3.75;;;;;;;;;;4985635;28;20051;-43
2022/07/31 09:07:35;;;;;;;6.30;2.05;;;;;;;;;;4985979;28;20046;-45
2022/07/31 09:10:00;;;;;;;5.03;2.70;;;;;;;;;;4986392;28;20038;-44
2022/07/31 09:12:27;;;;;;;6.03;3.05;;;;;;;;;;4985902;28;20073;-48
2022/07/31 09:14:52;;;;;;;3.10;2.15;;;;;;;;;;4986718;28;20437;-45
2022/07/31 09:17:18;;;;;;;6.22;2.85;;;;;;;;;;4986363;28;20101;-45
2022/07/31 09:19:44;;;;;;;4.10;2.47;;;;;;;;;;4986371;28;20038;-48
2022/07/31 09:22:22;;;;;;;8.15;2.47;;;;;;;;;;4985987;28;20061;-45
2022/07/31 09:24:48;;;;;;;3.28;2.90;;;;;;;;;;4986911;28;20462;-48
2022/07/31 09:27:16;;;;;;;6.93;1.90;;;;;;;;;;4988880;28;20560;-45
2022/07/31 09:29:43;;;;;;;4.03;2.72;;;;;;;;;;4972192;28;20046;-46
2022/07/31 09:32:08;;;;;;;8.23;4.40;;;;;;;;;;4989651;28;20097;-47
2022/07/31 09:34:33;;;;;;;4.22;3.30;;;;;;;;;;4989750;28;20600;-51
2022/07/31 09:37:08;;;;;;;7.53;2.45;;;;;;;;;;4988610;28;20058;-47
2022/07/31 09:39:34;;;;;;;4.82;3.55;;;;;;;;;;4989882;28;20050;-50
2022/07/31 09:42:00;;;;;;;4.75;3.10;;;;;;;;;;4988238;28;20517;-45
2022/07/31 09:44:34;;;;;;;3.63;2.67;;;;;;;;;;4989848;28;20092;-48
2022/07/31 09:46:59;;;;;;;1.77;1.65;;;;;;;;;;4988430;28;20055;-46
2022/07/31 09:49:31;;;;;;;3.60;2.67;;;;;;;;;;4987853;28;20039;-46
2022/07/31 09:51:57;;;;;;;2.78;2.25;;;;;;;;;;4988483;28;20050;-45
2022/07/31 09:54:23;;;;;;;10.30;3.72;;;;;;;;;;4989081;28;20611;-47
2022/07/31 09:56:49;;;;;;;16.33;4.82;;;;;;;;;;4988928;28;20042;-49
2022/07/31 09:59:14;;;;;;;7.32;4.28;;;;;;;;;;4988812;28;20340;-49
2022/07/31 10:01:40;;;;;;;4.18;2.15;;;;;;;;;;4988498;28;20093;-49
2022/07/31 10:04:06;;;;;;;4.45;1.52;;;;;;;;;;4988371;28;20283;-50
2022/07/31 10:06:33;;;;;;;4.22;3.47;;;;;;;;;;4966484;28;20512;-51
2022/07/31 10:09:00;;;;;;;4.57;3.35;;;;;;;;;;4987138;28;20036;-49
2022/07/31 10:11:27;;;;;;;10.10;5.45;;;;;;;;;;4988904;28;20058;-46
2022/07/31 10:13:55;;;;;;;12.98;3.70;;;;;;;;;;4988582;28;20236;-48
2022/07/31 10:16:21;;;;;;;5.28;2.30;;;;;;;;;;4987672;28;20133;-52
2022/07/31 10:18:49;;;;;;;4.68;2.72;;;;;;;;;;4988482;28;20050;-49
2022/07/31 10:21:15;;;;;;;3.42;3.13;;;;;;;;;;4988097;28;20497;-50
2022/07/31 10:23:42;;;;;;;5.55;3.28;;;;;;;;;;4988737;28;20044;-47
2022/07/31 10:26:08;;;;;;;4.45;2.22;;;;;;;;;;4987805;28;20061;-47
2022/07/31 10:28:35;;;;;;;3.28;2.40;;;;;;;;;;4988811;28;20038;-49
2022/07/31 10:31:01;;;;;;;3.35;2.30;;;;;;;;;;4988218;28;20069;-50
2022/07/31 10:33:27;;;;;;;4.07;1.65;;;;;;;;;;4988167;28;20667;-51
2022/07/31 10:36:02;;;;;;;2.47;2.25;;;;;;;;;;4988284;28;20154;-48
2022/07/31 10:38:35;;;;;;;1.52;1.10;;;;;;;;;;4988260;28;20054;-50
2022/07/31 10:41:03;;;;;;;3.65;2.47;;;;;;;;;;4988198;28;20576;-50
2022/07/31 10:43:35;;;;;;;2.08;1.63;;;;;;;;;;4987865;28;20064;-52
2022/07/31 10:46:01;;;;;;;2.28;1.45;;;;;;;;;;4987834;28;20042;-50
2022/07/31 10:48:26;;;;;;;3.42;2.08;;;;;;;;;;4988652;28;20390;-49
2022/07/31 10:51:06;;;;;;;4.30;1.48;;;;;;;;;;4988162;28;20378;-53
2022/07/31 10:53:31;;;;;;;2.17;1.23;;;;;;;;;;4986541;28;20125;-51
2022/07/31 10:56:03;;;;;;;3.80;1.83;;;;;;;;;;4986216;28;20142;-52
2022/07/31 10:58:29;;;;;;;3.20;2.00;;;;;;;;;;4987282;28;20830;-47
2022/07/31 11:01:04;;;;;;;2.72;2.00;;;;;;;;;;4988150;28;20133;-47
2022/07/31 11:03:37;;;;;;;3.22;2.40;;;;;;;;;;4987383;28;20039;-53
2022/07/31 11:06:03;;;;;;;2.13;1.88;;;;;;;;;;4986932;28;20042;-50
2022/07/31 11:08:39;;;;;;;3.67;1.52;;;;;;;;;;4987432;28;20469;-48
2022/07/31 11:11:05;;;;;;;3.65;0.95;;;;;;;;;;4987508;28;20077;-48
2022/07/31 11:13:32;;;;;;;4.00;2.47;;;;;;;;;;4986478;28;20572;-53
2022/07/31 11:16:04;;;;;;;2.63;2.30;;;;;;;;;;4985836;28;20719;-52
2022/07/31 11:18:29;;;;;;;11.52;1.92;;;;;;;;;;4987048;28;20084;-49
2022/07/31 11:20:59;;;;;;;2.42;1.88;;;;;;;;;;4969088;28;20050;-48
2022/07/31 11:23:28;;;;;;;2.63;1.38;;;;;;;;;;4986043;28;20050;-47
2022/07/31 11:25:57;;;;;;;2.58;1.60;;;;;;;;;;4986943;28;20053;-53
2022/07/31 11:28:23;;;;;;;2.50;2.15;;;;;;;;;;4987398;28;20146;-50
2022/07/31 11:30:57;;;;;;;5.22;1.73;;;;;;;;;;4987058;28;20108;-53
2022/07/31 11:33:32;;;;;;;3.85;2.22;;;;;;;;;;4987201;28;20177;-50
2022/07/31 11:36:21;;;;;;;2.42;1.50;;;;;;;;;;4986533;28;20039;-48
2022/07/31 11:38:49;;;;;;;1.45;1.10;;;;;;;;;;4986632;28;20088;-51
2022/07/31 11:41:15;;;;;;;2.42;1.85;;;;;;;;;;4986417;28;20185;-54
2022/07/31 11:43:44;;;;;;;1.23;0.85;;;;;;;;;;4985966;28;20473;-50
2022/07/31 11:46:10;;;;;;;1.65;1.23;;;;;;;;;;4985112;28;20069;-54
2022/07/31 11:48:38;;;;;;;1.95;1.45;;;;;;;;;;4982995;28;20034;-53
2022/07/31 11:51:04;;;;;;;7.05;2.20;;;;;;;;;;4986801;28;20461;-50
2022/07/31 11:53:29;;;;;;;3.78;2.50;;;;;;;;;;4987460;28;20058;-54
2022/07/31 11:55:59;;;;;;;3.22;1.90;;;;;;;;;;4985992;28;20478;-53
2022/07/31 11:58:25;;;;;;;3.13;2.03;;;;;;;;;;4984908;28;20076;-49
2022/07/31 12:00:55;;;;;;;3.10;2.63;;;;;;;;;;4985340;28;20050;-52
2022/07/31 12:03:23;;;;;;;3.90;2.72;;;;;;;;;;4986111;28;20030;-52
2022/07/31 12:05:51;;;;;;;4.22;1.65;;;;;;;;;;4985974;28;20056;-52
2022/07/31 12:08:16;;;;;;;4.10;2.42;;;;;;;;;;4986583;28;20050;-48
2022/07/31 12:10:42;;;;;;;3.58;2.70;;;;;;;;;;4985880;28;20085;-45
2022/07/31 12:13:11;;;;;;;8.15;2.55;;;;;;;;;;4986520;28;20116;-52
2022/07/31 12:15:36;;;;;;;4.13;3.30;;;;;;;;;;4986860;28;20133;-49
2022/07/31 12:18:04;;;;;;;3.10;2.08;;;;;;;;;;4986949;28;20565;-49
2022/07/31 12:20:29;;;;;;;3.10;1.73;;;;;;;;;;4986355;28;20051;-47
2022/07/31 12:22:58;;;;;;;4.35;3.33;;;;;;;;;;4986117;28;20053;-49
2022/07/31 12:25:23;;;;;;;3.67;2.92;;;;;;;;;;4987051;28;20939;-47
2022/07/31 12:27:55;;;;;;;3.22;1.67;;;;;;;;;;4986576;28;20133;-47
2022/07/31 12:30:23;;;;;;;3.47;3.13;;;;;;;;;;4985728;28;20085;-53
2022/07/31 12:32:49;;;;;;;3.08;2.65;;;;;;;;;;4986704;28;20058;-51
2022/07/31 12:35:14;;;;;;;3.25;2.85;;;;;;;;;;4986317;28;20052;-46
2022/07/31 12:37:46;;;;;;;4.30;2.75;;;;;;;;;;4986392;28;20524;-48
2022/07/31 12:40:25;;;;;;;4.15;3.08;;;;;;;;;;4986535;28;20116;-52
2022/07/31 12:42:50;;;;;;;3.85;1.95;;;;;;;;;;4986715;28;20050;-50
2022/07/31 12:45:16;;;;;;;7.68;2.22;;;;;;;;;;4986140;28;20049;-54
2022/07/31 12:47:41;;;;;;;2.60;1.58;;;;;;;;;;4985951;28;20038;-49
2022/07/31 12:50:07;;;;;;;2.88;1.80;;;;;;;;;;4984467;28;20081;-45
2022/07/31 12:52:33;;;;;;;2.60;2.40;;;;;;;;;;4986409;28;20038;-53
2022/07/31 12:55:00;;;;;;;1.60;1.20;;;;;;;;;;4984755;28;20038;-47
2022/07/31 12:57:27;;;;;;;1.80;1.27;;;;;;;;;;4985110;28;20046;-48
2022/07/31 12:59:52;;;;;;;3.00;1.52;;;;;;;;;;4985136;28;20660;-46
2022/07/31 13:02:18;;;;;;;2.35;1.42;;;;;;;;;;4985078;28;20054;-49
2022/07/31 13:04:43;;;;;;;2.38;1.30;;;;;;;;;;4985435;28;20053;-50
2022/07/31 13:07:08;;;;;;;2.65;1.08;;;;;;;;;;4985466;28;20054;-47
2022/07/31 13:09:33;;;;;;;2.83;1.38;;;;;;;;;;4986398;28;20097;-45
2022/07/31 13:11:59;;;;;;;2.92;1.92;;;;;;;;;;4985869;28;21030;-48
2022/07/31 13:14:24;;;;;;;2.38;1.60;;;;;;;;;;4985324;28;20528;-47
2022/07/31 13:16:51;;;;;;;3.35;1.92;;;;;;;;;;4986311;28;20497;-47
2022/07/31 13:19:16;;;;;;;7.35;2.95;;;;;;;;;;4985505;28;20046;-48
2022/07/31 13:21:42;;;;;;;1.92;1.35;;;;;;;;;;4985715;28;20049;-48
2022/07/31 13:24:08;;;;;;;3.65;1.88;;;;;;;;;;4985402;28;20070;-46
2022/07/31 13:26:37;;;;;;;1.40;1.17;;;;;;;;;;4985673;28;20035;-48
2022/07/31 13:29:04;;;;;;;1.05;0.95;;;;;;;;;;4984636;28;20529;-48
2022/07/31 13:31:29;;;;;;;2.92;1.25;;;;;;;;;;4984564;28;20130;-46
2022/07/31 13:33:56;;;;;;;2.78;1.55;;;;;;;;;;4984909;28;20138;-51
2022/07/31 13:36:23;;;;;;;4.35;2.10;;;;;;;;;;4985177;28;20038;-48
2022/07/31 13:38:48;;;;;;;1.92;1.70;;;;;;;;;;4984755;28;20046;-51
2022/07/31 13:41:20;;;;;;;3.25;2.20;;;;;;;;;;4984763;28;20053;-48
2022/07/31 13:43:49;;;;;;;1.58;1.13;;;;;;;;;;4985167;28;20038;-47
2022/07/31 13:46:14;;;;;;;1.95;1.17;;;;;;;;;;4985335;28;20034;-47
2022/07/31 13:48:39;;;;;;;0.88;0.55;;;;;;;;;;4984904;28;20105;-47
2022/07/31 13:51:05;;;;;;;1.48;1.20;;;;;;;;;;4984522;28;20182;-51
2022/07/31 13:53:30;;;;;;;2.40;2.10;;;;;;;;;;4984881;28;20035;-48
2022/07/31 13:55:57;;;;;;;3.00;1.20;;;;;;;;;;4983521;28;20058;-50
2022/07/31 13:58:25;;;;;;;2.05;1.65;;;;;;;;;;4984157;28;20137;-47
2022/07/31 14:00:51;;;;;;;1.45;0.85;;;;;;;;;;4984480;28;20527;-47
2022/07/31 14:03:16;;;;;;;2.95;1.73;;;;;;;;;;4985230;28;20046;-47
2022/07/31 14:05:41;;;;;;;2.22;1.60;;;;;;;;;;4984908;28;20045;-47
2022/07/31 14:08:06;;;;;;;3.90;0.93;;;;;;;;;;4984290;28;20046;-46
2022/07/31 14:10:32;;;;;;;2.63;1.88;;;;;;;;;;4984762;28;20117;-52
2022/07/31 14:12:57;;;;;;;1.83;1.25;;;;;;;;;;4987177;28;20061;-49
2022/07/31 14:15:22;;;;;;;2.05;0.90;;;;;;;;;;4987766;28;20093;-52
2022/07/31 14:17:48;;;;;;;1.98;1.10;;;;;;;;;;4985801;28;20525;-50
2022/07/31 14:20:13;;;;;;;1.48;0.90;;;;;;;;;;4986967;28;20376;-52
2022/07/31 14:22:39;;;;;;;2.63;1.20;;;;;;;;;;4987939;28;20133;-53
2022/07/31 14:25:04;;;;;;;0.95;0.77;;;;;;;;;;4987199;28;20483;-52
2022/07/31 14:27:29;;;;;;;1.33;0.98;;;;;;;;;;4987646;28;20088;-48
2022/07/31 14:29:55;;;;;;;1.67;0.73;;;;;;;;;;4988184;28;20055;-48
2022/07/31 14:32:21;;;;;;;3.03;1.35;;;;;;;;;;4988246;28;20034;-52
2022/07/31 14:34:46;;;;;;;2.05;1.27;;;;;;;;;;4987330;28;20104;-54
2022/07/31 14:37:12;;;;;;;3.33;1.70;;;;;;;;;;4987843;28;20132;-53